METAR Data
IDs: Format: Raw Decoded Include TAF

Data at: 0158 UTC 01 Mar 2021

KC09 010155Z AUTO 31014KT 10SM CLR 02/00 A2989 RMK AO2 T00210000